createdAt,value
2023-01-08T00:00:07.894Z,4.25
2023-01-08T00:02:39.716Z,4.55
2023-01-08T00:05:07.427Z,4.60
2023-01-08T00:07:34.485Z,5.00
2023-01-08T00:10:01.489Z,2.58
2023-01-08T00:12:30.276Z,2.22
2023-01-08T00:14:57.228Z,4.00
2023-01-08T00:17:24.259Z,2.78
2023-01-08T00:19:53.907Z,5.43
2023-01-08T00:22:20.909Z,7.20
2023-01-08T00:24:47.925Z,8.32
2023-01-08T00:27:14.877Z,3.95
2023-01-08T00:29:41.992Z,7.47
2023-01-08T00:32:08.930Z,5.35
2023-01-08T00:34:35.882Z,5.75
2023-01-08T00:37:02.901Z,7.07
2023-01-08T00:39:29.896Z,5.13
2023-01-08T00:41:57.088Z,6.97
2023-01-08T00:44:24.144Z,7.32
2023-01-08T00:46:51.232Z,6.03
2023-01-08T00:49:18.274Z,9.93
2023-01-08T00:51:45.225Z,8.82
2023-01-08T00:54:12.387Z,4.07
2023-01-08T00:56:39.413Z,1.92
2023-01-08T00:59:06.524Z,5.20
2023-01-08T01:01:33.684Z,5.25
2023-01-08T01:04:00.843Z,7.05
2023-01-08T01:06:28.188Z,6.60
2023-01-08T01:08:57.304Z,5.18
2023-01-08T01:11:26.319Z,5.63
2023-01-08T01:13:58.063Z,4.85
2023-01-08T01:16:25.732Z,6.97
2023-01-08T01:18:53.680Z,4.32
2023-01-08T01:21:24.360Z,8.15
2023-01-08T01:23:54.460Z,8.32
2023-01-08T01:26:22.590Z,10.55
2023-01-08T01:28:52.384Z,4.45
2023-01-08T01:31:20.616Z,8.15
2023-01-08T01:33:48.171Z,15.07
2023-01-08T01:36:16.552Z,9.23
2023-01-08T01:38:45.031Z,10.05
2023-01-08T01:41:34.150Z,9.98
2023-01-08T01:44:40.035Z,8.48
2023-01-08T01:47:21.086Z,7.40
2023-01-08T01:50:07.259Z,10.55
2023-01-08T01:52:39.113Z,9.80
2023-01-08T01:55:08.310Z,9.18
2023-01-08T01:57:36.740Z,12.07
2023-01-08T02:00:09.266Z,12.75
2023-01-08T02:02:39.366Z,8.07
2023-01-08T02:05:07.268Z,6.63
2023-01-08T02:07:38.916Z,7.55
2023-01-08T02:10:12.018Z,3.90
2023-01-08T02:12:47.278Z,9.20
2023-01-08T02:15:27.532Z,5.90
2023-01-08T02:18:19.178Z,8.43
2023-01-08T02:21:06.388Z,3.33
2023-01-08T02:23:45.532Z,6.20
2023-01-08T02:26:29.431Z,6.45
2023-01-08T02:29:10.179Z,4.38
2023-01-08T02:31:40.950Z,4.43
2023-01-08T02:34:08.715Z,5.03
2023-01-08T02:36:45.618Z,6.38
2023-01-08T02:39:27.794Z,4.13
2023-01-08T02:42:06.979Z,4.50
2023-01-08T02:44:36.716Z,5.72
2023-01-08T02:47:07.148Z,4.43
2023-01-08T02:49:39.273Z,5.20
2023-01-08T02:52:08.747Z,3.70
2023-01-08T02:54:37.102Z,4.70
2023-01-08T02:57:12.721Z,3.88
2023-01-08T02:59:43.122Z,2.40
2023-01-08T03:02:11.695Z,5.05
2023-01-08T03:04:46.951Z,4.10
2023-01-08T03:07:14.096Z,3.60
2023-01-08T03:09:41.593Z,3.33
2023-01-08T03:12:24.147Z,4.10
2023-01-08T03:14:58.265Z,1.65
2023-01-08T03:17:30.613Z,3.72
2023-01-08T03:20:03.886Z,3.53
2023-01-08T03:22:32.757Z,2.85
2023-01-08T03:24:59.910Z,3.63
2023-01-08T03:27:32.676Z,3.60
2023-01-08T03:30:00.691Z,3.83
2023-01-08T03:32:30.166Z,4.55
2023-01-08T03:34:59.852Z,4.88
2023-01-08T03:40:02.273Z,1.90
2023-01-08T03:42:32.694Z,3.78
2023-01-08T03:45:00.552Z,3.53
2023-01-08T03:47:30.765Z,5.18
2023-01-08T03:50:02.065Z,3.38
2023-01-08T03:52:33.060Z,3.75
2023-01-08T03:55:00.139Z,3.28
2023-01-08T03:57:27.446Z,3.25
2023-01-08T03:59:54.443Z,3.05
2023-01-08T04:02:21.624Z,2.22
2023-01-08T04:04:48.660Z,3.90
2023-01-08T04:07:15.608Z,3.67
2023-01-08T04:09:42.556Z,3.03
2023-01-08T04:12:09.967Z,1.63
2023-01-08T04:14:36.919Z,2.80
2023-01-08T04:17:03.887Z,3.17
2023-01-08T04:19:31.271Z,3.67
2023-01-08T04:21:58.253Z,2.75
2023-01-08T04:24:25.194Z,3.55
2023-01-08T04:26:52.162Z,2.22
2023-01-08T04:29:19.101Z,3.92
2023-01-08T04:31:46.165Z,3.22
2023-01-08T04:34:13.278Z,2.70
2023-01-08T04:36:40.247Z,4.18
2023-01-08T04:39:07.845Z,4.43
2023-01-08T04:41:34.917Z,2.30
2023-01-08T04:44:01.933Z,2.30
2023-01-08T04:46:29.002Z,3.15
2023-01-08T04:48:56.013Z,3.47
2023-01-08T04:51:23.370Z,3.20
2023-01-08T04:53:50.388Z,2.95
2023-01-08T04:56:17.449Z,3.03
2023-01-08T04:58:44.452Z,2.22
2023-01-08T05:01:14.115Z,4.22
2023-01-08T05:06:08.941Z,3.38
2023-01-08T05:08:35.931Z,2.67
2023-01-08T05:11:03.477Z,5.63
2023-01-08T05:13:30.566Z,4.75
2023-01-08T05:16:01.954Z,4.60
2023-01-08T05:18:30.538Z,4.68
2023-01-08T05:21:05.524Z,4.18
2023-01-08T05:23:33.450Z,4.32
2023-01-08T05:26:02.283Z,3.67
2023-01-08T05:28:29.862Z,4.05
2023-01-08T05:30:57.799Z,4.20
2023-01-08T05:33:25.109Z,5.40
2023-01-08T05:35:52.687Z,5.38
2023-01-08T05:38:19.748Z,5.80
2023-01-08T05:40:46.925Z,3.13
2023-01-08T05:43:17.165Z,2.70
2023-01-08T05:45:44.273Z,4.32
2023-01-08T05:48:11.288Z,2.95
2023-01-08T05:50:38.510Z,5.68
2023-01-08T05:53:09.846Z,4.18
2023-01-08T05:55:37.389Z,3.33
2023-01-08T05:58:05.485Z,1.45
2023-01-08T06:00:34.388Z,2.28
2023-01-08T06:03:01.745Z,3.50
2023-01-08T06:05:30.714Z,4.10
2023-01-08T06:07:59.250Z,5.65
2023-01-08T06:10:27.018Z,6.28
2023-01-08T06:12:54.207Z,5.55
2023-01-08T06:15:21.295Z,6.40
2023-01-08T06:17:48.353Z,6.65
2023-01-08T06:20:15.493Z,4.32
2023-01-08T06:22:42.457Z,3.25
2023-01-08T06:25:09.568Z,6.40
2023-01-08T06:27:36.511Z,11.30
2023-01-08T06:30:03.837Z,5.55
2023-01-08T06:32:31.221Z,22.95
2023-01-08T06:34:58.318Z,11.32
2023-01-08T06:37:25.325Z,6.78
2023-01-08T06:39:52.351Z,13.65
2023-01-08T06:42:19.374Z,19.05
2023-01-08T06:44:46.306Z,18.23
2023-01-08T06:47:13.257Z,12.30
2023-01-08T06:49:40.230Z,14.00
2023-01-08T06:52:07.305Z,13.55
2023-01-08T06:54:34.313Z,13.13
2023-01-08T06:57:01.424Z,9.82
2023-01-08T06:59:28.761Z,6.43
2023-01-08T07:01:55.969Z,9.27
2023-01-08T07:04:23.138Z,8.95
2023-01-08T07:06:50.315Z,9.43
2023-01-08T07:09:17.416Z,5.47
2023-01-08T07:11:44.447Z,8.43
2023-01-08T07:14:11.684Z,5.68
2023-01-08T07:16:38.807Z,4.15
2023-01-08T07:19:05.904Z,5.93
2023-01-08T07:21:32.924Z,7.07
2023-01-08T07:23:59.891Z,5.75
2023-01-08T07:26:27.845Z,4.82
2023-01-08T07:28:55.046Z,8.85
2023-01-08T07:31:22.256Z,14.93
2023-01-08T07:33:49.402Z,10.75
2023-01-08T07:36:19.464Z,8.02
2023-01-08T07:38:46.402Z,9.38
2023-01-08T07:41:13.452Z,12.65
2023-01-08T07:43:40.441Z,15.65
2023-01-08T07:46:07.538Z,9.98
2023-01-08T07:48:34.739Z,12.35
2023-01-08T07:51:06.828Z,12.10
2023-01-08T07:53:34.693Z,11.23
2023-01-08T07:56:04.055Z,10.27
2023-01-08T07:58:32.002Z,17.65
2023-01-08T08:00:59.447Z,10.25
2023-01-08T08:03:26.762Z,9.57
2023-01-08T08:05:54.149Z,11.02
2023-01-08T08:08:21.304Z,10.30
2023-01-08T08:10:48.387Z,9.77
2023-01-08T08:13:15.747Z,12.10
2023-01-08T08:15:43.007Z,11.73
2023-01-08T08:18:10.632Z,10.52
2023-01-08T08:20:38.327Z,10.27
2023-01-08T08:23:10.740Z,9.48
2023-01-08T08:25:37.721Z,9.82
2023-01-08T08:28:05.672Z,10.75
2023-01-08T08:30:35.326Z,11.65
2023-01-08T08:33:05.359Z,11.77
2023-01-08T08:35:34.168Z,12.23
2023-01-08T08:38:01.286Z,12.68
2023-01-08T08:40:28.645Z,13.13
2023-01-08T08:43:01.888Z,12.13
2023-01-08T08:45:29.899Z,13.57
2023-01-08T08:47:56.908Z,12.45
2023-01-08T08:50:24.564Z,12.88
2023-01-08T08:52:51.590Z,11.88
2023-01-08T08:55:19.011Z,11.88
2023-01-08T08:57:47.237Z,14.38
2023-01-08T09:00:15.743Z,13.05
2023-01-08T09:02:43.258Z,12.05
2023-01-08T09:05:11.920Z,10.80
2023-01-08T09:07:39.038Z,11.90
2023-01-08T09:10:06.765Z,12.80
2023-01-08T09:12:33.768Z,13.60
2023-01-08T09:15:01.224Z,12.88
2023-01-08T09:17:28.237Z,12.52
2023-01-08T09:19:55.222Z,12.85
2023-01-08T09:22:22.319Z,13.15
2023-01-08T09:24:49.304Z,13.98
2023-01-08T09:27:16.344Z,12.80
2023-01-08T09:29:43.409Z,14.55
2023-01-08T09:32:10.518Z,13.55
2023-01-08T09:34:38.413Z,12.75
2023-01-08T09:37:06.283Z,12.90
2023-01-08T09:39:33.841Z,11.57
2023-01-08T09:42:05.849Z,12.18
2023-01-08T09:44:39.281Z,13.07
2023-01-08T09:47:20.075Z,13.45
2023-01-08T09:49:49.726Z,12.60
2023-01-08T09:52:16.896Z,12.95
2023-01-08T09:54:44.387Z,14.50
2023-01-08T09:57:17.756Z,13.20
2023-01-08T09:59:48.058Z,13.82
2023-01-08T10:02:21.312Z,13.02
2023-01-08T10:04:57.631Z,12.13
2023-01-08T10:07:26.666Z,12.25
2023-01-08T10:09:54.859Z,13.68
2023-01-08T10:12:27.404Z,12.18
2023-01-08T10:15:00.142Z,13.13
2023-01-08T10:17:36.958Z,12.90
2023-01-08T10:20:17.186Z,12.10
2023-01-08T10:22:44.793Z,11.82
2023-01-08T10:25:17.369Z,12.93
2023-01-08T10:27:59.124Z,12.00
2023-01-08T10:30:36.265Z,12.05
2023-01-08T10:33:25.287Z,12.23
2023-01-08T10:36:02.232Z,11.93
2023-01-08T10:38:41.824Z,11.05
2023-01-08T10:41:15.159Z,18.75
2023-01-08T10:44:02.144Z,16.65
2023-01-08T10:46:35.961Z,20.90
2023-01-08T10:49:05.720Z,38.38
2023-01-08T10:51:33.493Z,20.65
2023-01-08T10:54:13.282Z,19.70
2023-01-08T10:56:45.451Z,14.15
2023-01-08T10:59:19.988Z,22.88
2023-01-08T11:01:49.055Z,31.02
2023-01-08T11:04:23.401Z,33.73
2023-01-08T11:06:50.492Z,25.60
2023-01-08T11:09:25.583Z,12.32
2023-01-08T11:11:52.685Z,13.55
2023-01-08T11:14:28.149Z,13.43
2023-01-08T11:16:56.762Z,14.35
2023-01-08T11:19:25.279Z,14.30
2023-01-08T11:21:58.661Z,14.82
2023-01-08T11:24:37.417Z,13.35
2023-01-08T11:27:15.165Z,13.63
2023-01-08T11:29:51.201Z,15.02
2023-01-08T11:32:27.257Z,15.15
2023-01-08T11:34:54.440Z,15.40
2023-01-08T11:37:22.866Z,15.77
2023-01-08T11:39:51.981Z,16.25
2023-01-08T11:42:34.027Z,16.48
2023-01-08T11:45:12.123Z,15.68
2023-01-08T11:47:51.999Z,15.00
2023-01-08T11:50:55.236Z,15.20
2023-01-08T11:53:37.124Z,14.18
2023-01-08T11:56:19.079Z,14.35
2023-01-08T11:58:49.389Z,13.13
2023-01-08T12:01:42.578Z,16.08
2023-01-08T12:04:31.085Z,19.80
2023-01-08T12:07:09.943Z,13.82
2023-01-08T12:10:11.954Z,14.18
2023-01-08T12:12:55.518Z,9.10
2023-01-08T12:15:47.613Z,13.70
2023-01-08T12:18:26.910Z,12.93
2023-01-08T12:21:08.832Z,11.65
2023-01-08T12:24:00.160Z,11.98
2023-01-08T12:26:39.664Z,10.52
2023-01-08T12:29:12.311Z,7.82
2023-01-08T12:32:06.739Z,10.93
2023-01-08T12:34:49.915Z,12.18
2023-01-08T12:37:41.093Z,10.90
2023-01-08T12:40:17.592Z,13.38
2023-01-08T12:42:50.191Z,10.85
2023-01-08T12:45:28.479Z,11.15
2023-01-08T12:48:06.574Z,11.23
2023-01-08T12:50:49.707Z,11.00
2023-01-08T12:53:38.675Z,12.32
2023-01-08T12:56:20.459Z,12.10
2023-01-08T12:59:15.288Z,15.68
2023-01-08T13:01:56.339Z,12.20
2023-01-08T13:04:23.813Z,7.50
2023-01-08T13:07:03.736Z,8.93
2023-01-08T13:12:00.892Z,6.35
2023-01-08T13:14:28.716Z,8.40
2023-01-08T13:17:21.634Z,11.48
2023-01-08T13:19:55.818Z,10.13
2023-01-08T13:22:29.277Z,12.77
2023-01-08T13:25:15.492Z,11.05
2023-01-08T13:27:43.335Z,13.07
2023-01-08T13:30:34.450Z,15.52
2023-01-08T13:33:02.768Z,11.15
2023-01-08T13:35:32.049Z,14.55
2023-01-08T13:38:17.572Z,11.90
2023-01-08T13:40:44.588Z,13.13
2023-01-08T13:43:34.681Z,11.85
2023-01-08T13:46:01.734Z,14.95
2023-01-08T13:48:40.619Z,8.88
2023-01-08T13:51:30.309Z,14.37
2023-01-08T13:54:05.166Z,10.32
2023-01-08T13:56:32.579Z,13.02
2023-01-08T13:58:59.836Z,14.93
2023-01-08T14:01:27.007Z,11.27
2023-01-08T14:03:54.240Z,9.30
2023-01-08T14:06:25.593Z,9.50
2023-01-08T14:08:58.460Z,7.45
2023-01-08T14:11:29.390Z,5.53
2023-01-08T14:13:57.383Z,10.38
2023-01-08T14:16:25.426Z,16.23
2023-01-08T14:18:56.430Z,11.50
2023-01-08T14:21:25.975Z,8.98
2023-01-08T14:23:54.284Z,8.57
2023-01-08T14:26:34.601Z,11.98
2023-01-08T14:29:03.593Z,10.90
2023-01-08T14:31:30.753Z,12.57
2023-01-08T14:34:00.109Z,12.15
2023-01-08T14:36:27.474Z,14.27
2023-01-08T14:38:54.601Z,15.32
2023-01-08T14:41:54.055Z,12.95
2023-01-08T14:44:36.230Z,13.00
2023-01-08T14:47:05.999Z,13.38
2023-01-08T14:49:40.917Z,10.98
2023-01-08T14:52:12.179Z,14.02
2023-01-08T14:54:39.891Z,13.02
2023-01-08T14:57:07.028Z,15.20
2023-01-08T14:59:37.981Z,14.10
2023-01-08T15:02:08.647Z,12.55
2023-01-08T15:04:35.944Z,11.25
2023-01-08T15:07:29.781Z,11.05
2023-01-08T15:09:59.660Z,6.97
2023-01-08T15:12:31.686Z,11.65
2023-01-08T15:15:24.697Z,9.68
2023-01-08T15:17:52.692Z,10.65
2023-01-08T15:20:22.742Z,11.60
2023-01-08T15:22:50.713Z,13.27
2023-01-08T15:25:29.210Z,12.50
2023-01-08T15:28:01.978Z,12.60
2023-01-08T15:30:48.180Z,10.77
2023-01-08T15:33:24.269Z,8.65
2023-01-08T15:35:54.360Z,10.55
2023-01-08T15:38:24.211Z,10.30
2023-01-08T15:40:59.923Z,10.55
2023-01-08T15:43:31.131Z,12.02
2023-01-08T15:45:58.340Z,16.85
2023-01-08T15:48:26.467Z,12.65
2023-01-08T15:50:58.257Z,12.38
2023-01-08T15:53:28.513Z,9.23
2023-01-08T15:55:58.827Z,13.55
2023-01-08T15:58:26.723Z,11.52
2023-01-08T16:00:54.136Z,6.30
2023-01-08T16:03:24.768Z,8.82
2023-01-08T16:05:52.861Z,26.02
2023-01-08T16:08:31.003Z,57.08
2023-01-08T16:10:58.365Z,21.15
2023-01-08T16:13:25.712Z,30.83
2023-01-08T16:15:52.993Z,34.33
2023-01-08T16:18:20.079Z,24.00
2023-01-08T16:20:47.137Z,27.10
2023-01-08T16:23:14.158Z,38.20
2023-01-08T16:25:41.360Z,25.60
2023-01-08T16:28:08.491Z,25.90
2023-01-08T16:30:36.680Z,128.13
2023-01-08T16:33:03.806Z,86.82
2023-01-08T16:35:30.916Z,35.90
2023-01-08T16:37:58.720Z,21.85
2023-01-08T16:40:26.017Z,13.27
2023-01-08T16:42:53.193Z,14.82
2023-01-08T16:45:20.359Z,16.08
2023-01-08T16:47:47.514Z,13.07
2023-01-08T16:50:14.704Z,9.98
2023-01-08T16:52:41.857Z,11.45
2023-01-08T16:55:10.994Z,13.73
2023-01-08T16:57:38.178Z,10.60
2023-01-08T17:00:06.434Z,11.63
2023-01-08T17:02:33.576Z,11.38
2023-01-08T17:05:00.763Z,9.82
2023-01-08T17:07:28.065Z,9.98
2023-01-08T17:09:55.190Z,11.40
2023-01-08T17:12:25.038Z,11.52
2023-01-08T17:14:53.408Z,20.67
2023-01-08T17:17:20.560Z,11.15
2023-01-08T17:19:47.922Z,12.77
2023-01-08T17:22:15.172Z,10.30
2023-01-08T17:24:42.517Z,9.80
2023-01-08T17:27:11.705Z,9.93
2023-01-08T17:29:39.116Z,10.98
2023-01-08T17:32:06.768Z,11.80
2023-01-08T17:34:36.426Z,10.55
2023-01-08T17:39:30.621Z,3.90
2023-01-08T17:42:16.130Z,8.13
2023-01-08T17:44:43.822Z,10.45
2023-01-08T17:47:12.324Z,9.73
2023-01-08T17:49:39.986Z,6.05
2023-01-08T17:52:07.768Z,9.40
2023-01-08T17:54:35.142Z,11.15
2023-01-08T17:57:03.845Z,9.85
2023-01-08T17:59:31.479Z,9.82
2023-01-08T18:02:01.257Z,8.68
2023-01-08T18:04:28.826Z,8.38
2023-01-08T18:06:56.288Z,6.85
2023-01-08T18:09:23.527Z,10.30
2023-01-08T18:11:51.140Z,11.05
2023-01-08T18:14:18.350Z,14.68
2023-01-08T18:16:45.976Z,9.63
2023-01-08T18:19:14.027Z,12.15
2023-01-08T18:21:41.722Z,12.70
2023-01-08T18:24:09.700Z,12.65
2023-01-08T18:26:38.429Z,10.70
2023-01-08T18:29:06.317Z,9.93
2023-01-08T18:31:35.332Z,10.35
2023-01-08T18:34:04.355Z,12.20
2023-01-08T18:36:32.080Z,10.80
2023-01-08T18:39:00.415Z,11.38
2023-01-08T18:41:46.350Z,11.38
2023-01-08T18:44:13.688Z,11.93
2023-01-08T18:46:41.322Z,13.00
2023-01-08T18:49:09.692Z,11.27
2023-01-08T18:51:38.038Z,10.23
2023-01-08T18:54:08.169Z,12.32
2023-01-08T18:56:37.648Z,8.85
2023-01-08T18:59:06.961Z,12.85
2023-01-08T19:01:36.076Z,15.32
2023-01-08T19:04:03.562Z,15.05
2023-01-08T19:06:31.086Z,15.38
2023-01-08T19:09:00.164Z,15.27
2023-01-08T19:11:27.874Z,12.68
2023-01-08T19:13:56.838Z,17.10
2023-01-08T19:16:25.381Z,15.05
2023-01-08T19:18:53.014Z,13.82
2023-01-08T19:21:20.783Z,13.02
2023-01-08T19:23:48.194Z,14.55
2023-01-08T19:26:15.489Z,14.32
2023-01-08T19:28:43.426Z,14.77
2023-01-08T19:31:17.099Z,14.10
2023-01-08T19:33:46.318Z,12.00
2023-01-08T19:36:16.195Z,14.90
2023-01-08T19:38:44.625Z,12.00
2023-01-08T19:41:31.231Z,15.98
2023-01-08T19:43:59.246Z,15.10
2023-01-08T19:46:27.075Z,14.50
2023-01-08T19:48:58.357Z,14.50
2023-01-08T19:51:26.389Z,12.20
2023-01-08T19:57:05.216Z,12.30
2023-01-08T19:59:36.590Z,17.90
2023-01-08T20:02:03.854Z,17.42
2023-01-08T20:04:31.853Z,17.52
2023-01-08T20:06:59.462Z,14.57
2023-01-08T20:09:26.684Z,16.40
2023-01-08T20:11:53.799Z,15.60
2023-01-08T20:14:21.309Z,17.42
2023-01-08T20:16:48.469Z,14.15
2023-01-08T20:19:15.526Z,21.42
2023-01-08T20:21:42.686Z,13.18
2023-01-08T20:24:15.401Z,20.42
2023-01-08T20:26:47.078Z,17.23
2023-01-08T20:29:16.732Z,20.15
2023-01-08T20:31:44.372Z,21.33
2023-01-08T20:34:17.905Z,18.58
2023-01-08T20:36:45.632Z,17.52
2023-01-08T20:39:15.098Z,16.27
2023-01-08T20:41:50.086Z,15.75
2023-01-08T20:44:28.757Z,18.40
2023-01-08T20:46:55.862Z,13.63
2023-01-08T20:49:25.348Z,14.80
2023-01-08T20:51:58.355Z,14.93
2023-01-08T20:54:26.413Z,15.35
2023-01-08T20:56:56.237Z,11.35
2023-01-08T21:01:53.933Z,9.05
2023-01-08T21:04:21.462Z,10.02
2023-01-08T21:06:49.056Z,14.02
2023-01-08T21:09:18.058Z,10.55
2023-01-08T21:11:45.573Z,10.68
2023-01-08T21:14:12.764Z,9.95
2023-01-08T21:16:40.752Z,10.50
2023-01-08T21:19:10.621Z,12.95
2023-01-08T21:21:40.692Z,18.67
2023-01-08T21:24:10.156Z,12.35
2023-01-08T21:26:38.155Z,15.40
2023-01-08T21:29:09.150Z,13.45
2023-01-08T21:31:38.709Z,16.35
2023-01-08T21:34:06.412Z,12.75
2023-01-08T21:36:33.644Z,19.30
2023-01-08T21:39:01.875Z,13.65
2023-01-08T21:41:48.264Z,12.73
2023-01-08T21:44:37.318Z,11.27
2023-01-08T21:47:06.886Z,10.88
2023-01-08T21:49:36.098Z,8.50
2023-01-08T21:52:22.420Z,12.73
2023-01-08T21:54:49.617Z,9.68
2023-01-08T21:57:16.918Z,11.00
2023-01-08T21:59:44.460Z,8.95
2023-01-08T22:02:16.183Z,11.43
2023-01-08T22:04:44.827Z,9.73
2023-01-08T22:19:51.997Z,11.02
2023-01-08T22:42:04.074Z,6.68
2023-01-08T22:44:31.319Z,5.15
2023-01-08T22:47:08.320Z,6.70
2023-01-08T22:53:36.821Z,4.93
2023-01-08T23:00:20.287Z,8.90
2023-01-08T23:16:59.843Z,3.75
2023-01-08T23:31:38.164Z,7.15
2023-01-08T23:34:13.183Z,7.13
2023-01-08T23:46:44.928Z,7.82
2023-01-08T23:49:12.024Z,9.88
2023-01-08T23:54:25.263Z,10.60
2023-01-08T23:56:54.409Z,7.30
